sensor_id;sensor_type;location;lat;lon;timestamp;P1;durP1;ratioP1;P2;durP2;ratioP2
46921;SDS011;44039;48.336;10.454;2022-07-31T00:00:05;110.07;;;104.95;;
46921;SDS011;44039;48.336;10.454;2022-07-31T00:02:53;111.95;;;107.03;;
46921;SDS011;44039;48.336;10.454;2022-07-31T00:05:40;111.05;;;106.45;;
46921;SDS011;44039;48.336;10.454;2022-07-31T00:08:28;112.28;;;107.45;;
46921;SDS011;44039;48.336;10.454;2022-07-31T00:11:15;107.22;;;102.43;;
46921;SDS011;44039;48.336;10.454;2022-07-31T00:14:02;108.50;;;103.68;;
46921;SDS011;44039;48.336;10.454;2022-07-31T00:16:49;109.03;;;104.03;;
46921;SDS011;44039;48.336;10.454;2022-07-31T00:19:37;111.32;;;106.38;;
46921;SDS011;44039;48.336;10.454;2022-07-31T00:22:24;110.53;;;105.78;;
46921;SDS011;44039;48.336;10.454;2022-07-31T00:25:11;109.78;;;105.00;;
46921;SDS011;44039;48.336;10.454;2022-07-31T00:27:59;110.07;;;105.25;;
46921;SDS011;44039;48.336;10.454;2022-07-31T00:30:46;111.60;;;106.75;;
46921;SDS011;44039;48.336;10.454;2022-07-31T00:33:33;107.80;;;103.43;;
46921;SDS011;44039;48.336;10.454;2022-07-31T00:36:20;106.78;;;102.15;;
46921;SDS011;44039;48.336;10.454;2022-07-31T00:39:15;105.70;;;101.00;;
46921;SDS011;44039;48.336;10.454;2022-07-31T00:42:03;103.25;;;98.95;;
46921;SDS011;44039;48.336;10.454;2022-07-31T00:44:51;103.53;;;99.13;;
46921;SDS011;44039;48.336;10.454;2022-07-31T00:47:38;105.78;;;101.20;;
46921;SDS011;44039;48.336;10.454;2022-07-31T00:50:25;105.30;;;100.70;;
46921;SDS011;44039;48.336;10.454;2022-07-31T00:53:12;109.22;;;104.03;;
46921;SDS011;44039;48.336;10.454;2022-07-31T00:55:59;101.35;;;97.15;;
46921;SDS011;44039;48.336;10.454;2022-07-31T00:58:46;106.90;;;102.30;;
46921;SDS011;44039;48.336;10.454;2022-07-31T01:01:33;103.85;;;99.07;;
46921;SDS011;44039;48.336;10.454;2022-07-31T01:04:20;102.75;;;98.15;;
46921;SDS011;44039;48.336;10.454;2022-07-31T01:07:08;101.50;;;97.15;;
46921;SDS011;44039;48.336;10.454;2022-07-31T01:09:55;106.18;;;101.47;;
46921;SDS011;44039;48.336;10.454;2022-07-31T01:13:03;105.18;;;100.47;;
46921;SDS011;44039;48.336;10.454;2022-07-31T01:15:53;100.40;;;96.05;;
46921;SDS011;44039;48.336;10.454;2022-07-31T01:18:43;104.68;;;99.97;;
46921;SDS011;44039;48.336;10.454;2022-07-31T01:21:34;104.70;;;100.15;;
46921;SDS011;44039;48.336;10.454;2022-07-31T01:24:48;104.93;;;100.55;;
46921;SDS011;44039;48.336;10.454;2022-07-31T01:31:24;103.15;;;98.40;;
46921;SDS011;44039;48.336;10.454;2022-07-31T01:34:26;103.40;;;98.80;;
46921;SDS011;44039;48.336;10.454;2022-07-31T01:38:02;103.07;;;98.68;;
46921;SDS011;44039;48.336;10.454;2022-07-31T01:40:34;101.47;;;97.10;;
46921;SDS011;44039;48.336;10.454;2022-07-31T01:43:31;102.50;;;98.25;;
46921;SDS011;44039;48.336;10.454;2022-07-31T01:46:19;103.90;;;99.57;;
46921;SDS011;44039;48.336;10.454;2022-07-31T01:49:08;101.70;;;97.07;;
46921;SDS011;44039;48.336;10.454;2022-07-31T01:51:57;100.90;;;96.50;;
46921;SDS011;44039;48.336;10.454;2022-07-31T01:54:50;101.65;;;97.28;;
46921;SDS011;44039;48.336;10.454;2022-07-31T01:57:40;105.43;;;100.80;;
46921;SDS011;44039;48.336;10.454;2022-07-31T02:00:28;105.72;;;101.10;;
46921;SDS011;44039;48.336;10.454;2022-07-31T02:03:20;103.05;;;98.40;;
46921;SDS011;44039;48.336;10.454;2022-07-31T02:06:29;99.60;;;95.30;;
46921;SDS011;44039;48.336;10.454;2022-07-31T02:09:18;102.97;;;98.50;;
46921;SDS011;44039;48.336;10.454;2022-07-31T02:12:07;102.80;;;98.38;;
46921;SDS011;44039;48.336;10.454;2022-07-31T02:14:57;101.95;;;97.18;;
46921;SDS011;44039;48.336;10.454;2022-07-31T02:17:45;102.07;;;97.55;;
46921;SDS011;44039;48.336;10.454;2022-07-31T02:20:35;104.43;;;99.90;;
46921;SDS011;44039;48.336;10.454;2022-07-31T02:23:24;102.32;;;97.93;;
46921;SDS011;44039;48.336;10.454;2022-07-31T02:26:11;99.63;;;95.35;;
46921;SDS011;44039;48.336;10.454;2022-07-31T02:29:01;106.47;;;100.78;;
46921;SDS011;44039;48.336;10.454;2022-07-31T02:31:49;106.15;;;101.38;;
46921;SDS011;44039;48.336;10.454;2022-07-31T02:34:49;102.97;;;97.85;;
46921;SDS011;44039;48.336;10.454;2022-07-31T02:37:38;104.18;;;99.90;;
46921;SDS011;44039;48.336;10.454;2022-07-31T02:40:28;104.20;;;99.68;;
46921;SDS011;44039;48.336;10.454;2022-07-31T02:43:16;104.28;;;99.18;;
46921;SDS011;44039;48.336;10.454;2022-07-31T02:46:04;99.32;;;94.85;;
46921;SDS011;44039;48.336;10.454;2022-07-31T02:48:52;102.80;;;97.57;;
46921;SDS011;44039;48.336;10.454;2022-07-31T02:51:40;103.07;;;98.32;;
46921;SDS011;44039;48.336;10.454;2022-07-31T02:54:29;103.53;;;98.93;;
46921;SDS011;44039;48.336;10.454;2022-07-31T02:57:16;102.03;;;97.57;;
46921;SDS011;44039;48.336;10.454;2022-07-31T03:00:12;104.20;;;99.53;;
46921;SDS011;44039;48.336;10.454;2022-07-31T03:03:08;102.97;;;98.03;;
46921;SDS011;44039;48.336;10.454;2022-07-31T03:05:56;100.65;;;96.25;;
46921;SDS011;44039;48.336;10.454;2022-07-31T03:08:43;100.32;;;96.13;;
46921;SDS011;44039;48.336;10.454;2022-07-31T03:11:30;104.05;;;99.38;;
46921;SDS011;44039;48.336;10.454;2022-07-31T03:14:17;106.45;;;101.75;;
46921;SDS011;44039;48.336;10.454;2022-07-31T03:17:06;105.10;;;100.70;;
46921;SDS011;44039;48.336;10.454;2022-07-31T03:19:54;106.18;;;101.32;;
46921;SDS011;44039;48.336;10.454;2022-07-31T03:22:41;102.40;;;98.00;;
46921;SDS011;44039;48.336;10.454;2022-07-31T03:25:31;102.40;;;97.68;;
46921;SDS011;44039;48.336;10.454;2022-07-31T03:28:19;101.75;;;97.25;;
46921;SDS011;44039;48.336;10.454;2022-07-31T03:31:07;100.07;;;95.60;;
46921;SDS011;44039;48.336;10.454;2022-07-31T03:33:54;99.75;;;95.55;;
46921;SDS011;44039;48.336;10.454;2022-07-31T03:36:42;98.72;;;94.30;;
46921;SDS011;44039;48.336;10.454;2022-07-31T03:39:30;98.10;;;93.60;;
46921;SDS011;44039;48.336;10.454;2022-07-31T03:42:17;99.05;;;94.72;;
46921;SDS011;44039;48.336;10.454;2022-07-31T03:45:05;101.10;;;96.72;;
46921;SDS011;44039;48.336;10.454;2022-07-31T03:47:53;101.90;;;97.10;;
46921;SDS011;44039;48.336;10.454;2022-07-31T03:50:40;100.65;;;95.85;;
46921;SDS011;44039;48.336;10.454;2022-07-31T03:53:28;103.43;;;98.90;;
46921;SDS011;44039;48.336;10.454;2022-07-31T03:56:17;102.80;;;98.20;;
46921;SDS011;44039;48.336;10.454;2022-07-31T03:59:05;102.05;;;97.22;;
46921;SDS011;44039;48.336;10.454;2022-07-31T04:01:52;99.72;;;95.38;;
46921;SDS011;44039;48.336;10.454;2022-07-31T04:04:44;98.80;;;94.68;;
46921;SDS011;44039;48.336;10.454;2022-07-31T04:07:31;98.53;;;94.30;;
46921;SDS011;44039;48.336;10.454;2022-07-31T04:10:18;100.63;;;96.30;;
46921;SDS011;44039;48.336;10.454;2022-07-31T04:13:05;95.22;;;91.03;;
46921;SDS011;44039;48.336;10.454;2022-07-31T04:15:52;97.43;;;93.18;;
46921;SDS011;44039;48.336;10.454;2022-07-31T04:18:39;99.07;;;94.97;;
46921;SDS011;44039;48.336;10.454;2022-07-31T04:21:26;101.88;;;97.20;;
46921;SDS011;44039;48.336;10.454;2022-07-31T04:24:13;100.75;;;96.35;;
46921;SDS011;44039;48.336;10.454;2022-07-31T04:27:03;103.43;;;98.80;;
46921;SDS011;44039;48.336;10.454;2022-07-31T04:29:57;100.30;;;95.82;;
46921;SDS011;44039;48.336;10.454;2022-07-31T04:32:44;102.15;;;97.57;;
46921;SDS011;44039;48.336;10.454;2022-07-31T04:35:31;102.93;;;98.53;;
46921;SDS011;44039;48.336;10.454;2022-07-31T04:38:19;104.53;;;99.90;;
46921;SDS011;44039;48.336;10.454;2022-07-31T04:41:07;105.65;;;101.00;;
46921;SDS011;44039;48.336;10.454;2022-07-31T04:43:54;105.22;;;100.63;;
46921;SDS011;44039;48.336;10.454;2022-07-31T04:46:43;105.95;;;101.45;;
46921;SDS011;44039;48.336;10.454;2022-07-31T04:49:30;110.63;;;105.72;;
46921;SDS011;44039;48.336;10.454;2022-07-31T04:52:18;111.40;;;106.50;;
46921;SDS011;44039;48.336;10.454;2022-07-31T04:55:05;106.50;;;102.03;;
46921;SDS011;44039;48.336;10.454;2022-07-31T04:57:52;109.90;;;105.20;;
46921;SDS011;44039;48.336;10.454;2022-07-31T05:00:40;109.65;;;104.85;;
46921;SDS011;44039;48.336;10.454;2022-07-31T05:03:27;106.22;;;101.75;;
46921;SDS011;44039;48.336;10.454;2022-07-31T05:06:14;108.93;;;104.03;;
46921;SDS011;44039;48.336;10.454;2022-07-31T05:09:01;115.63;;;109.60;;
46921;SDS011;44039;48.336;10.454;2022-07-31T05:11:55;110.45;;;105.65;;
46921;SDS011;44039;48.336;10.454;2022-07-31T05:14:42;115.00;;;110.35;;
46921;SDS011;44039;48.336;10.454;2022-07-31T05:17:29;112.35;;;107.72;;
46921;SDS011;44039;48.336;10.454;2022-07-31T05:20:16;114.68;;;109.75;;
46921;SDS011;44039;48.336;10.454;2022-07-31T05:23:03;113.75;;;108.93;;
46921;SDS011;44039;48.336;10.454;2022-07-31T05:25:52;115.30;;;110.20;;
46921;SDS011;44039;48.336;10.454;2022-07-31T05:28:39;115.15;;;110.15;;
46921;SDS011;44039;48.336;10.454;2022-07-31T05:31:28;117.70;;;112.78;;
46921;SDS011;44039;48.336;10.454;2022-07-31T05:34:15;115.90;;;111.07;;
46921;SDS011;44039;48.336;10.454;2022-07-31T05:37:03;111.72;;;106.72;;
46921;SDS011;44039;48.336;10.454;2022-07-31T05:39:50;120.43;;;115.43;;
46921;SDS011;44039;48.336;10.454;2022-07-31T05:42:37;120.45;;;115.43;;
46921;SDS011;44039;48.336;10.454;2022-07-31T05:45:24;120.38;;;115.38;;
46921;SDS011;44039;48.336;10.454;2022-07-31T05:48:12;122.35;;;117.43;;
46921;SDS011;44039;48.336;10.454;2022-07-31T05:51:00;122.00;;;117.00;;
46921;SDS011;44039;48.336;10.454;2022-07-31T05:53:51;122.22;;;116.95;;
46921;SDS011;44039;48.336;10.454;2022-07-31T05:56:38;122.57;;;117.57;;
46921;SDS011;44039;48.336;10.454;2022-07-31T05:59:25;122.90;;;117.70;;
46921;SDS011;44039;48.336;10.454;2022-07-31T06:02:12;122.43;;;117.22;;
46921;SDS011;44039;48.336;10.454;2022-07-31T06:04:59;125.95;;;120.78;;
46921;SDS011;44039;48.336;10.454;2022-07-31T06:07:48;128.43;;;122.72;;
46921;SDS011;44039;48.336;10.454;2022-07-31T06:10:40;126.72;;;121.53;;
46921;SDS011;44039;48.336;10.454;2022-07-31T06:13:27;124.43;;;119.25;;
46921;SDS011;44039;48.336;10.454;2022-07-31T06:16:15;127.30;;;121.90;;
46921;SDS011;44039;48.336;10.454;2022-07-31T06:19:03;129.82;;;123.68;;
46921;SDS011;44039;48.336;10.454;2022-07-31T06:21:50;125.28;;;120.38;;
46921;SDS011;44039;48.336;10.454;2022-07-31T06:24:39;123.90;;;118.95;;
46921;SDS011;44039;48.336;10.454;2022-07-31T06:27:29;125.45;;;120.25;;
46921;SDS011;44039;48.336;10.454;2022-07-31T06:30:20;122.28;;;117.07;;
46921;SDS011;44039;48.336;10.454;2022-07-31T06:33:07;126.50;;;121.50;;
46921;SDS011;44039;48.336;10.454;2022-07-31T06:36:02;135.05;;;129.50;;
46921;SDS011;44039;48.336;10.454;2022-07-31T06:38:49;139.68;;;133.43;;
46921;SDS011;44039;48.336;10.454;2022-07-31T06:41:36;139.20;;;133.60;;
46921;SDS011;44039;48.336;10.454;2022-07-31T06:44:33;158.20;;;151.95;;
46921;SDS011;44039;48.336;10.454;2022-07-31T06:47:31;175.18;;;168.68;;
46921;SDS011;44039;48.336;10.454;2022-07-31T06:50:18;189.95;;;183.02;;
46921;SDS011;44039;48.336;10.454;2022-07-31T06:53:05;189.77;;;182.98;;
46921;SDS011;44039;48.336;10.454;2022-07-31T06:55:52;190.00;;;183.00;;
46921;SDS011;44039;48.336;10.454;2022-07-31T06:58:39;178.45;;;171.73;;
46921;SDS011;44039;48.336;10.454;2022-07-31T07:01:26;168.30;;;162.02;;
46921;SDS011;44039;48.336;10.454;2022-07-31T07:04:14;161.65;;;155.57;;
46921;SDS011;44039;48.336;10.454;2022-07-31T07:07:01;154.63;;;148.65;;
46921;SDS011;44039;48.336;10.454;2022-07-31T07:09:48;154.77;;;148.57;;
46921;SDS011;44039;48.336;10.454;2022-07-31T07:12:35;150.82;;;144.95;;
46921;SDS011;44039;48.336;10.454;2022-07-31T07:15:22;151.10;;;145.23;;
46921;SDS011;44039;48.336;10.454;2022-07-31T07:18:09;154.27;;;148.30;;
46921;SDS011;44039;48.336;10.454;2022-07-31T07:20:57;148.80;;;142.90;;
46921;SDS011;44039;48.336;10.454;2022-07-31T07:23:44;154.80;;;148.70;;
46921;SDS011;44039;48.336;10.454;2022-07-31T07:26:31;159.20;;;153.10;;
46921;SDS011;44039;48.336;10.454;2022-07-31T07:29:19;168.73;;;162.38;;
46921;SDS011;44039;48.336;10.454;2022-07-31T07:32:06;168.30;;;161.98;;
46921;SDS011;44039;48.336;10.454;2022-07-31T07:34:53;176.30;;;169.70;;
46921;SDS011;44039;48.336;10.454;2022-07-31T07:37:46;190.57;;;183.80;;
46921;SDS011;44039;48.336;10.454;2022-07-31T07:40:34;197.10;;;190.07;;
46921;SDS011;44039;48.336;10.454;2022-07-31T07:43:21;184.13;;;177.45;;
46921;SDS011;44039;48.336;10.454;2022-07-31T07:46:08;183.40;;;176.60;;
46921;SDS011;44039;48.336;10.454;2022-07-31T07:48:55;184.02;;;176.13;;
46921;SDS011;44039;48.336;10.454;2022-07-31T07:51:42;182.13;;;175.75;;
46921;SDS011;44039;48.336;10.454;2022-07-31T07:54:45;201.27;;;194.25;;
46921;SDS011;44039;48.336;10.454;2022-07-31T07:57:32;210.60;;;203.43;;
46921;SDS011;44039;48.336;10.454;2022-07-31T08:00:20;226.73;;;219.05;;
46921;SDS011;44039;48.336;10.454;2022-07-31T08:03:07;219.73;;;212.18;;
46921;SDS011;44039;48.336;10.454;2022-07-31T08:06:14;212.13;;;204.55;;
46921;SDS011;44039;48.336;10.454;2022-07-31T08:09:01;219.68;;;211.25;;
46921;SDS011;44039;48.336;10.454;2022-07-31T08:11:49;217.52;;;209.95;;
46921;SDS011;44039;48.336;10.454;2022-07-31T08:14:36;219.38;;;211.75;;
46921;SDS011;44039;48.336;10.454;2022-07-31T08:17:23;238.80;;;230.40;;
46921;SDS011;44039;48.336;10.454;2022-07-31T08:20:10;245.98;;;237.65;;
46921;SDS011;44039;48.336;10.454;2022-07-31T08:22:57;251.57;;;243.00;;
46921;SDS011;44039;48.336;10.454;2022-07-31T08:25:44;240.18;;;232.05;;
46921;SDS011;44039;48.336;10.454;2022-07-31T08:28:33;253.70;;;245.32;;
46921;SDS011;44039;48.336;10.454;2022-07-31T08:31:21;248.75;;;240.23;;
46921;SDS011;44039;48.336;10.454;2022-07-31T08:34:08;255.60;;;247.00;;
46921;SDS011;44039;48.336;10.454;2022-07-31T08:36:56;248.75;;;240.50;;
46921;SDS011;44039;48.336;10.454;2022-07-31T08:39:43;241.35;;;233.30;;
46921;SDS011;44039;48.336;10.454;2022-07-31T08:42:31;240.10;;;232.10;;
46921;SDS011;44039;48.336;10.454;2022-07-31T08:45:18;237.85;;;229.82;;
46921;SDS011;44039;48.336;10.454;2022-07-31T08:48:06;233.30;;;225.50;;
46921;SDS011;44039;48.336;10.454;2022-07-31T08:50:54;231.65;;;223.65;;
46921;SDS011;44039;48.336;10.454;2022-07-31T08:53:43;226.57;;;218.88;;
46921;SDS011;44039;48.336;10.454;2022-07-31T08:56:32;218.30;;;210.65;;
46921;SDS011;44039;48.336;10.454;2022-07-31T08:59:20;212.63;;;205.20;;
46921;SDS011;44039;48.336;10.454;2022-07-31T09:02:11;198.00;;;191.10;;
46921;SDS011;44039;48.336;10.454;2022-07-31T09:04:59;197.50;;;190.45;;
46921;SDS011;44039;48.336;10.454;2022-07-31T09:07:46;190.63;;;183.80;;
46921;SDS011;44039;48.336;10.454;2022-07-31T09:10:33;188.90;;;182.15;;
46921;SDS011;44039;48.336;10.454;2022-07-31T09:13:20;185.45;;;178.57;;
46921;SDS011;44039;48.336;10.454;2022-07-31T09:16:07;193.10;;;186.05;;
46921;SDS011;44039;48.336;10.454;2022-07-31T09:21:42;207.48;;;200.23;;
46921;SDS011;44039;48.336;10.454;2022-07-31T09:24:31;213.65;;;206.18;;
46921;SDS011;44039;48.336;10.454;2022-07-31T09:27:26;212.52;;;205.02;;
46921;SDS011;44039;48.336;10.454;2022-07-31T09:30:14;203.88;;;196.77;;
46921;SDS011;44039;48.336;10.454;2022-07-31T09:33:11;215.55;;;208.13;;
46921;SDS011;44039;48.336;10.454;2022-07-31T09:36:02;217.30;;;209.90;;
46921;SDS011;44039;48.336;10.454;2022-07-31T09:38:50;219.50;;;211.63;;
46921;SDS011;44039;48.336;10.454;2022-07-31T09:41:48;232.48;;;224.57;;
46921;SDS011;44039;48.336;10.454;2022-07-31T09:44:56;223.77;;;216.00;;
46921;SDS011;44039;48.336;10.454;2022-07-31T09:47:43;230.20;;;222.35;;
46921;SDS011;44039;48.336;10.454;2022-07-31T09:50:30;236.52;;;228.57;;
46921;SDS011;44039;48.336;10.454;2022-07-31T09:53:17;254.13;;;245.65;;
46921;SDS011;44039;48.336;10.454;2022-07-31T09:56:05;251.27;;;242.68;;
46921;SDS011;44039;48.336;10.454;2022-07-31T09:58:53;246.75;;;237.90;;
46921;SDS011;44039;48.336;10.454;2022-07-31T10:01:45;239.98;;;232.10;;
46921;SDS011;44039;48.336;10.454;2022-07-31T10:04:37;244.75;;;236.65;;
46921;SDS011;44039;48.336;10.454;2022-07-31T10:07:25;241.10;;;232.85;;
46921;SDS011;44039;48.336;10.454;2022-07-31T10:10:18;258.60;;;249.93;;
46921;SDS011;44039;48.336;10.454;2022-07-31T10:13:09;254.07;;;245.77;;
46921;SDS011;44039;48.336;10.454;2022-07-31T10:15:59;244.88;;;236.68;;
46921;SDS011;44039;48.336;10.454;2022-07-31T10:18:48;242.00;;;233.50;;
46921;SDS011;44039;48.336;10.454;2022-07-31T10:21:42;239.63;;;231.55;;
46921;SDS011;44039;48.336;10.454;2022-07-31T10:24:43;241.43;;;233.38;;
46921;SDS011;44039;48.336;10.454;2022-07-31T10:27:33;237.32;;;229.27;;
46921;SDS011;44039;48.336;10.454;2022-07-31T10:30:25;242.30;;;234.20;;
46921;SDS011;44039;48.336;10.454;2022-07-31T10:33:14;249.02;;;240.68;;
46921;SDS011;44039;48.336;10.454;2022-07-31T10:36:24;243.25;;;235.18;;
46921;SDS011;44039;48.336;10.454;2022-07-31T10:45:31;271.08;;;262.00;;
46921;SDS011;44039;48.336;10.454;2022-07-31T10:48:18;271.02;;;261.92;;
46921;SDS011;44039;48.336;10.454;2022-07-31T10:51:06;281.67;;;272.33;;
46921;SDS011;44039;48.336;10.454;2022-07-31T10:53:58;268.42;;;259.38;;
46921;SDS011;44039;48.336;10.454;2022-07-31T10:56:47;270.15;;;261.17;;
46921;SDS011;44039;48.336;10.454;2022-07-31T10:59:34;277.00;;;267.95;;
46921;SDS011;44039;48.336;10.454;2022-07-31T11:02:31;267.63;;;258.85;;
46921;SDS011;44039;48.336;10.454;2022-07-31T11:05:20;269.65;;;260.85;;
46921;SDS011;44039;48.336;10.454;2022-07-31T11:08:13;273.33;;;264.45;;
46921;SDS011;44039;48.336;10.454;2022-07-31T11:11:00;269.67;;;260.58;;
46921;SDS011;44039;48.336;10.454;2022-07-31T11:13:50;264.20;;;255.52;;
46921;SDS011;44039;48.336;10.454;2022-07-31T11:16:50;266.90;;;258.30;;
46921;SDS011;44039;48.336;10.454;2022-07-31T11:19:39;258.63;;;250.00;;
46921;SDS011;44039;48.336;10.454;2022-07-31T11:22:27;251.77;;;243.45;;
46921;SDS011;44039;48.336;10.454;2022-07-31T11:25:18;238.55;;;230.57;;
46921;SDS011;44039;48.336;10.454;2022-07-31T11:28:15;238.00;;;230.05;;
46921;SDS011;44039;48.336;10.454;2022-07-31T11:31:10;247.18;;;238.65;;
46921;SDS011;44039;48.336;10.454;2022-07-31T11:34:01;255.50;;;246.80;;
46921;SDS011;44039;48.336;10.454;2022-07-31T11:36:50;272.55;;;263.50;;
46921;SDS011;44039;48.336;10.454;2022-07-31T11:39:39;269.73;;;261.15;;
46921;SDS011;44039;48.336;10.454;2022-07-31T11:42:41;260.55;;;252.02;;
46921;SDS011;44039;48.336;10.454;2022-07-31T11:45:30;269.80;;;261.05;;
46921;SDS011;44039;48.336;10.454;2022-07-31T11:48:19;258.42;;;249.95;;
46921;SDS011;44039;48.336;10.454;2022-07-31T11:51:07;254.10;;;245.60;;
46921;SDS011;44039;48.336;10.454;2022-07-31T11:53:54;251.63;;;243.25;;
46921;SDS011;44039;48.336;10.454;2022-07-31T11:56:43;257.15;;;248.65;;
46921;SDS011;44039;48.336;10.454;2022-07-31T11:59:31;253.85;;;245.65;;
46921;SDS011;44039;48.336;10.454;2022-07-31T12:02:38;259.65;;;250.95;;
46921;SDS011;44039;48.336;10.454;2022-07-31T12:05:26;275.60;;;266.55;;
46921;SDS011;44039;48.336;10.454;2022-07-31T12:08:25;292.00;;;282.50;;
46921;SDS011;44039;48.336;10.454;2022-07-31T12:11:13;290.83;;;281.02;;
46921;SDS011;44039;48.336;10.454;2022-07-31T12:14:02;278.15;;;269.10;;
46921;SDS011;44039;48.336;10.454;2022-07-31T12:16:49;268.70;;;259.80;;
46921;SDS011;44039;48.336;10.454;2022-07-31T12:19:36;258.45;;;249.70;;
46921;SDS011;44039;48.336;10.454;2022-07-31T12:22:24;263.05;;;254.40;;
46921;SDS011;44039;48.336;10.454;2022-07-31T12:25:11;260.48;;;251.75;;
46921;SDS011;44039;48.336;10.454;2022-07-31T12:27:58;259.92;;;251.32;;
46921;SDS011;44039;48.336;10.454;2022-07-31T12:30:55;257.52;;;249.13;;
46921;SDS011;44039;48.336;10.454;2022-07-31T12:33:44;247.63;;;239.48;;
46921;SDS011;44039;48.336;10.454;2022-07-31T12:36:31;249.27;;;240.82;;
46921;SDS011;44039;48.336;10.454;2022-07-31T12:39:18;261.25;;;252.27;;
46921;SDS011;44039;48.336;10.454;2022-07-31T12:42:05;273.35;;;264.25;;
46921;SDS011;44039;48.336;10.454;2022-07-31T12:44:53;272.20;;;263.27;;
46921;SDS011;44039;48.336;10.454;2022-07-31T12:47:42;280.08;;;270.85;;
46921;SDS011;44039;48.336;10.454;2022-07-31T12:50:36;289.38;;;279.90;;
46921;SDS011;44039;48.336;10.454;2022-07-31T12:53:23;292.00;;;282.42;;
46921;SDS011;44039;48.336;10.454;2022-07-31T12:56:13;294.90;;;285.33;;
46921;SDS011;44039;48.336;10.454;2022-07-31T12:59:00;302.60;;;292.23;;
46921;SDS011;44039;48.336;10.454;2022-07-31T13:01:48;295.23;;;285.67;;
46921;SDS011;44039;48.336;10.454;2022-07-31T13:04:35;297.63;;;287.90;;
46921;SDS011;44039;48.336;10.454;2022-07-31T13:07:22;285.73;;;276.23;;
46921;SDS011;44039;48.336;10.454;2022-07-31T13:10:09;289.50;;;280.05;;
46921;SDS011;44039;48.336;10.454;2022-07-31T13:13:09;294.20;;;284.65;;
46921;SDS011;44039;48.336;10.454;2022-07-31T13:15:56;294.92;;;285.30;;
46921;SDS011;44039;48.336;10.454;2022-07-31T13:18:43;293.00;;;283.33;;
46921;SDS011;44039;48.336;10.454;2022-07-31T13:21:30;285.35;;;276.05;;
46921;SDS011;44039;48.336;10.454;2022-07-31T13:24:35;271.33;;;262.38;;
46921;SDS011;44039;48.336;10.454;2022-07-31T13:27:22;254.43;;;246.13;;
46921;SDS011;44039;48.336;10.454;2022-07-31T13:30:10;237.80;;;229.93;;
46921;SDS011;44039;48.336;10.454;2022-07-31T13:32:57;244.70;;;236.50;;
46921;SDS011;44039;48.336;10.454;2022-07-31T13:35:44;245.18;;;236.82;;
46921;SDS011;44039;48.336;10.454;2022-07-31T13:38:31;233.52;;;225.77;;
46921;SDS011;44039;48.336;10.454;2022-07-31T13:41:18;232.27;;;224.45;;
46921;SDS011;44039;48.336;10.454;2022-07-31T13:44:14;240.55;;;232.57;;
46921;SDS011;44039;48.336;10.454;2022-07-31T13:47:01;245.80;;;237.68;;
46921;SDS011;44039;48.336;10.454;2022-07-31T13:49:48;252.73;;;244.48;;
46921;SDS011;44039;48.336;10.454;2022-07-31T13:52:35;254.38;;;246.18;;
46921;SDS011;44039;48.336;10.454;2022-07-31T13:55:27;257.85;;;249.10;;
46921;SDS011;44039;48.336;10.454;2022-07-31T13:58:14;256.08;;;247.70;;
46921;SDS011;44039;48.336;10.454;2022-07-31T14:01:01;247.68;;;239.50;;
46921;SDS011;44039;48.336;10.454;2022-07-31T14:03:50;241.43;;;233.35;;
46921;SDS011;44039;48.336;10.454;2022-07-31T14:06:37;236.90;;;229.10;;
46921;SDS011;44039;48.336;10.454;2022-07-31T14:09:25;238.82;;;230.90;;
46921;SDS011;44039;48.336;10.454;2022-07-31T14:12:12;246.70;;;238.48;;
46921;SDS011;44039;48.336;10.454;2022-07-31T14:15:00;249.30;;;241.00;;
46921;SDS011;44039;48.336;10.454;2022-07-31T14:17:49;248.70;;;240.57;;
46921;SDS011;44039;48.336;10.454;2022-07-31T14:20:36;252.32;;;243.80;;
46921;SDS011;44039;48.336;10.454;2022-07-31T14:23:24;257.67;;;249.18;;
46921;SDS011;44039;48.336;10.454;2022-07-31T14:26:20;256.50;;;247.93;;
46921;SDS011;44039;48.336;10.454;2022-07-31T14:29:07;256.63;;;247.85;;
46921;SDS011;44039;48.336;10.454;2022-07-31T14:31:54;255.73;;;247.30;;
46921;SDS011;44039;48.336;10.454;2022-07-31T14:34:41;246.80;;;238.50;;
46921;SDS011;44039;48.336;10.454;2022-07-31T14:37:29;249.13;;;240.90;;
46921;SDS011;44039;48.336;10.454;2022-07-31T14:40:16;247.73;;;239.43;;
46921;SDS011;44039;48.336;10.454;2022-07-31T14:43:03;255.35;;;246.98;;
46921;SDS011;44039;48.336;10.454;2022-07-31T14:45:50;255.23;;;246.63;;
46921;SDS011;44039;48.336;10.454;2022-07-31T14:48:37;254.65;;;246.25;;
46921;SDS011;44039;48.336;10.454;2022-07-31T14:51:25;268.20;;;259.35;;
46921;SDS011;44039;48.336;10.454;2022-07-31T14:54:12;251.15;;;243.07;;
46921;SDS011;44039;48.336;10.454;2022-07-31T14:56:59;240.70;;;232.80;;
46921;SDS011;44039;48.336;10.454;2022-07-31T14:59:49;236.07;;;228.13;;
46921;SDS011;44039;48.336;10.454;2022-07-31T15:02:36;246.38;;;238.27;;
46921;SDS011;44039;48.336;10.454;2022-07-31T15:05:23;250.82;;;242.68;;
46921;SDS011;44039;48.336;10.454;2022-07-31T15:08:30;250.88;;;242.40;;
46921;SDS011;44039;48.336;10.454;2022-07-31T15:11:17;246.38;;;238.32;;
46921;SDS011;44039;48.336;10.454;2022-07-31T15:14:04;250.23;;;241.93;;
46921;SDS011;44039;48.336;10.454;2022-07-31T15:16:51;257.13;;;248.70;;
46921;SDS011;44039;48.336;10.454;2022-07-31T15:19:38;250.77;;;242.50;;
46921;SDS011;44039;48.336;10.454;2022-07-31T15:22:25;241.18;;;233.02;;
46921;SDS011;44039;48.336;10.454;2022-07-31T15:25:13;234.98;;;227.15;;
46921;SDS011;44039;48.336;10.454;2022-07-31T15:28:00;236.80;;;228.80;;
46921;SDS011;44039;48.336;10.454;2022-07-31T15:30:47;229.43;;;221.80;;
46921;SDS011;44039;48.336;10.454;2022-07-31T15:33:34;230.48;;;222.65;;
46921;SDS011;44039;48.336;10.454;2022-07-31T15:36:24;224.73;;;217.23;;
46921;SDS011;44039;48.336;10.454;2022-07-31T15:39:12;220.65;;;213.07;;
46921;SDS011;44039;48.336;10.454;2022-07-31T15:42:00;219.35;;;211.90;;
46921;SDS011;44039;48.336;10.454;2022-07-31T15:44:48;218.43;;;210.82;;
46921;SDS011;44039;48.336;10.454;2022-07-31T15:47:35;221.43;;;213.90;;
46921;SDS011;44039;48.336;10.454;2022-07-31T15:50:23;222.82;;;215.50;;
46921;SDS011;44039;48.336;10.454;2022-07-31T15:53:10;220.18;;;212.70;;
46921;SDS011;44039;48.336;10.454;2022-07-31T15:55:57;218.98;;;211.23;;
46921;SDS011;44039;48.336;10.454;2022-07-31T15:58:44;213.85;;;206.50;;
46921;SDS011;44039;48.336;10.454;2022-07-31T16:01:31;219.05;;;211.65;;
46921;SDS011;44039;48.336;10.454;2022-07-31T16:04:18;215.43;;;207.95;;